Time;durP1;ratioP1;P1;durP2;ratioP2;P2;SDS_P1;SDS_P2;PMS_P1;PMS_P2;Temp;Humidity;BMP_temperature;BMP_pressure;BME280_temperature;BME280_humidity;BME280_pressure;Samples;Min_cycle;Max_cycle;Signal;HPM_P1;HPM_P2
2022/10/01 00:00:52;;;;;;;11.23;9.27;;;;;;;8.87;100.00;95838.13;6150257;22;20007;-60
2022/10/01 00:03:19;;;;;;;9.30;8.57;;;;;;;8.86;100.00;95841.72;6176270;22;20050;-60
2022/10/01 00:05:45;;;;;;;10.25;8.38;;;;;;;8.86;100.00;95856.66;6176218;23;20058;-60
2022/10/01 00:08:13;;;;;;;8.95;8.00;;;;;;;8.86;100.00;95867.16;6176345;23;20068;-60
2022/10/01 00:10:42;;;;;;;9.93;9.13;;;;;;;8.87;100.00;95859.13;6173281;23;20008;-69
2022/10/01 00:13:09;;;;;;;9.70;8.85;;;;;;;8.89;100.00;95870.34;6176571;23;19997;-62
2022/10/01 00:15:39;;;;;;;8.82;8.05;;;;;;;8.89;100.00;95867.72;6177015;22;20439;-63
2022/10/01 00:18:05;;;;;;;8.32;7.65;;;;;;;8.89;100.00;95870.34;6149447;22;20021;-63
2022/10/01 00:20:31;;;;;;;8.48;7.70;;;;;;;8.89;100.00;95872.97;6175725;23;20001;-63
2022/10/01 00:22:57;;;;;;;10.70;9.05;;;;;;;8.88;100.00;95865.22;6176334;23;20015;-63
2022/10/01 00:25:24;;;;;;;8.50;7.80;;;;;;;8.88;100.00;95863.41;6176167;23;20001;-63
2022/10/01 00:27:49;;;;;;;9.82;8.90;;;;;;;8.88;100.00;95870.47;6175672;22;20005;-63
2022/10/01 00:30:15;;;;;;;9.82;9.02;;;;;;;8.88;100.00;95871.31;6175211;23;20011;-64
2022/10/01 00:32:40;;;;;;;17.60;11.43;;;;;;;8.93;100.00;95877.97;6149701;23;20033;-59
2022/10/01 00:35:11;;;;;;;12.55;11.55;;;;;;;8.93;100.00;95872.69;6176680;23;20004;-64
2022/10/01 00:37:36;;;;;;;14.43;13.27;;;;;;;8.94;100.00;95877.00;6176334;23;19993;-64
2022/10/01 00:40:06;;;;;;;14.55;13.25;;;;;;;8.93;100.00;95872.69;6175888;23;20013;-64
2022/10/01 00:42:31;;;;;;;17.02;15.38;;;;;;;8.92;100.00;95860.53;6174642;23;20009;-65
2022/10/01 00:45:01;;;;;;;26.35;23.73;;;;;;;8.91;100.00;95866.75;6175836;23;20039;-65
2022/10/01 00:47:32;;;;;;;26.98;24.67;;;;;;;8.92;100.00;95863.16;6174707;22;20036;-64
2022/10/01 00:50:05;;;;;;;31.13;27.95;;;;;;;8.91;100.00;95872.84;6175480;23;19997;-71
2022/10/01 00:52:33;;;;;;;21.33;19.08;;;;;;;8.90;100.00;95873.81;6176531;22;20525;-64
2022/10/01 00:55:10;;;;;;;15.15;12.98;;;;;;;8.87;100.00;95864.38;6176724;23;20093;-63
2022/10/01 00:57:37;;;;;;;9.52;8.52;;;;;;;8.89;100.00;95865.09;6175283;23;20030;-63
2022/10/01 01:00:05;;;;;;;7.65;6.65;;;;;;;9.08;100.00;95879.31;6176376;23;20316;-63
2022/10/01 01:02:31;;;;;;;6.57;6.10;;;;;;;8.96;100.00;95873.28;6176034;23;20005;-63
2022/10/01 01:04:57;;;;;;;6.75;6.25;;;;;;;8.90;100.00;95865.94;6176282;23;20063;-63
2022/10/01 01:07:23;;;;;;;6.95;6.45;;;;;;;8.86;100.00;95864.53;6175471;22;20012;-63
2022/10/01 01:09:50;;;;;;;8.75;6.93;;;;;;;8.85;100.00;95871.56;6175254;23;20001;-67
2022/10/01 01:12:53;;;;;;;8.30;7.50;;;;;;;8.83;100.00;95878.72;6174715;23;19997;-58
2022/10/01 01:15:45;;;;;;;8.48;7.68;;;;;;;8.83;100.00;95878.72;6176490;23;20001;-58
2022/10/01 01:18:29;;;;;;;9.93;8.10;;;;;;;8.82;100.00;95887.56;6174635;23;20009;-58
2022/10/01 01:21:22;;;;;;;9.27;8.57;;;;;;;8.79;100.00;95889.59;6175915;23;20004;-56
2022/10/01 01:24:02;;;;;;;9.10;8.30;;;;;;;8.78;100.00;95877.44;6176034;23;20007;-58
2022/10/01 01:26:58;;;;;;;9.52;8.82;;;;;;;8.78;100.00;95874.81;6175490;23;20024;-58
2022/10/01 01:29:31;;;;;;;10.07;9.18;;;;;;;8.76;100.00;95882.81;6174817;23;20009;-71
2022/10/01 01:32:06;;;;;;;11.45;8.77;;;;;;;8.73;100.00;95888.31;6175988;23;20005;-60
2022/10/01 01:34:33;;;;;;;10.13;9.23;;;;;;;8.72;100.00;95884.00;6176151;23;20009;-60
2022/10/01 01:37:05;;;;;;;10.23;9.43;;;;;;;8.73;100.00;95886.53;6175494;23;20067;-60
2022/10/01 01:39:32;;;;;;;9.60;8.60;;;;;;;8.73;100.00;95896.19;6174465;23;20001;-60
2022/10/01 01:42:04;;;;;;;8.82;8.13;;;;;;;8.74;100.00;95890.00;6173809;23;19997;-61
2022/10/01 01:44:35;;;;;;;8.93;8.13;;;;;;;8.74;100.00;95882.94;6148765;22;20005;-61
2022/10/01 01:47:02;;;;;;;8.40;7.80;;;;;;;8.73;100.00;95880.44;6175820;23;20043;-64
2022/10/01 01:49:28;;;;;;;8.90;8.20;;;;;;;8.71;100.00;95883.19;6174190;23;20001;-63
2022/10/01 01:52:14;;;;;;;9.25;8.45;;;;;;;8.71;100.00;95885.81;6176274;23;20058;-63
2022/10/01 01:54:41;;;;;;;;;;;;;;;8.68;100.00;95890.47;6176182;23;20072;-63
2022/10/01 01:57:07;;;;;;;11.93;8.63;;;;;;;8.67;100.00;95892.28;6175741;22;19904;-64
2022/10/01 01:59:34;;;;;;;9.15;8.32;;;;;;;8.69;100.00;95889.53;6174836;23;20003;-63
2022/10/01 02:02:00;;;;;;;9.15;8.43;;;;;;;8.69;100.00;95889.53;6176993;23;20147;-63
2022/10/01 02:04:34;;;;;;;9.60;8.63;;;;;;;8.65;100.00;95888.09;6177177;23;20082;-63
2022/10/01 02:07:08;;;;;;;10.07;8.30;;;;;;;8.64;100.00;95889.91;6176531;23;20012;-63
2022/10/01 02:09:38;;;;;;;8.63;8.02;;;;;;;8.64;100.00;95878.56;6175925;23;20058;-68
2022/10/01 02:12:13;;;;;;;8.30;7.60;;;;;;;8.64;100.00;95878.56;6176625;23;19996;-67
2022/10/01 02:14:47;;;;;;;7.93;7.32;;;;;;;8.63;100.00;95883.00;6177767;23;19997;-68
2022/10/01 02:17:21;;;;;;;8.25;7.65;;;;;;;8.62;100.00;95880.50;6176634;23;20013;-68
2022/10/01 02:20:01;;;;;;;8.95;8.05;;;;;;;8.61;100.00;95877.00;6176124;23;20068;-68
2022/10/01 02:22:41;;;;;;;8.05;7.38;;;;;;;8.63;100.00;95882.16;6176373;23;20005;-67
2022/10/01 02:25:09;;;;;;;8.02;6.10;;;;;;;8.66;100.00;95881.91;6177156;23;20036;-65
2022/10/01 02:27:50;;;;;;;8.20;6.18;;;;;;;8.60;100.00;95891.09;6176211;23;20351;-70
2022/10/01 02:30:16;;;;;;;7.60;6.90;;;;;;;8.55;100.00;95901.13;6176350;23;20050;-63
2022/10/01 02:32:45;;;;;;;8.40;6.80;;;;;;;8.51;100.00;95911.06;6176410;23;20019;-63
2022/10/01 02:35:15;;;;;;;7.53;6.75;;;;;;;8.49;100.00;95912.13;6176570;23;20008;-63
2022/10/01 02:37:43;;;;;;;10.27;7.63;;;;;;;8.66;100.00;95911.63;6176294;22;20515;-63
2022/10/01 02:40:14;;;;;;;8.45;7.53;;;;;;;8.68;100.00;95911.47;6176377;23;20008;-62
2022/10/01 02:42:47;;;;;;;8.35;7.53;;;;;;;8.65;100.00;95914.34;6176792;23;20577;-63
2022/10/01 02:45:17;;;;;;;7.90;7.13;;;;;;;8.56;100.00;95921.19;6176821;23;20008;-71
2022/10/01 02:47:51;;;;;;;7.95;7.35;;;;;;;8.50;100.00;95925.13;6176030;23;20035;-62
2022/10/01 02:50:17;;;;;;;6.60;6.10;;;;;;;8.42;100.00;95922.25;6176173;23;20004;-64
2022/10/01 02:52:53;;;;;;;7.07;6.57;;;;;;;8.30;100.00;95917.06;6176708;23;20221;-64
2022/10/01 02:55:27;;;;;;;7.30;6.68;;;;;;;8.24;100.00;95914.91;6176644;23;20027;-65
2022/10/01 02:57:53;;;;;;;8.20;7.35;;;;;;;8.20;100.00;95913.47;6176244;23;20014;-65
2022/10/01 03:00:22;;;;;;;11.90;7.40;;;;;;;8.12;100.00;95908.00;6176415;23;20087;-63
2022/10/01 03:02:48;;;;;;;7.53;6.78;;;;;;;8.07;100.00;95916.25;6176698;23;20033;-64
2022/10/01 03:05:15;;;;;;;6.38;5.88;;;;;;;8.01;100.00;95917.53;6176753;23;20076;-71
2022/10/01 03:07:42;;;;;;;7.60;6.93;;;;;;;7.98;100.00;95911.72;6176268;23;20009;-58
2022/10/01 03:10:09;;;;;;;8.65;7.88;;;;;;;7.95;100.00;95902.31;6176412;23;20001;-58
2022/10/01 03:12:34;;;;;;;7.70;7.20;;;;;;;7.91;100.00;95908.75;6176586;23;20012;-58
2022/10/01 03:15:01;;;;;;;8.73;7.88;;;;;;;7.87;100.00;95910.75;6176962;23;20028;-58
2022/10/01 03:17:27;;;;;;;13.25;11.98;;;;;;;7.86;100.00;95910.91;6175661;23;20021;-57
2022/10/01 03:19:53;;;;;;;8.02;7.40;;;;;;;7.82;100.00;95907.69;6175424;23;20056;-58
2022/10/01 03:22:22;;;;;;;9.00;7.03;;;;;;;7.81;100.00;95910.41;6176126;23;20002;-58
2022/10/01 03:24:49;;;;;;;17.10;15.40;;;;;;;7.84;100.00;95897.06;6177098;23;20001;-71
2022/10/01 03:27:14;;;;;;;16.63;15.32;;;;;;;7.80;100.00;95900.88;6176374;23;20004;-64
2022/10/01 03:29:39;;;;;;;13.70;12.63;;;;;;;7.80;100.00;95913.97;6175597;23;20071;-64
2022/10/01 03:32:05;;;;;;;9.65;8.85;;;;;;;7.71;100.00;95923.38;6176519;23;20000;-64
2022/10/01 03:34:30;;;;;;;8.88;8.07;;;;;;;7.69;100.00;95930.53;6176873;23;20037;-64
2022/10/01 03:36:55;;;;;;;8.32;7.63;;;;;;;7.68;100.00;95936.72;6176418;23;19997;-64
2022/10/01 03:39:21;;;;;;;11.25;7.90;;;;;;;7.67;100.00;95941.16;6175252;23;20005;-64
2022/10/01 03:41:46;;;;;;;7.75;7.15;;;;;;;7.70;100.00;95942.69;6176174;23;20012;-64
2022/10/01 03:44:12;;;;;;;7.10;6.50;;;;;;;7.65;100.00;95935.19;6176077;23;20001;-67
2022/10/01 03:46:37;;;;;;;6.90;6.22;;;;;;;7.57;100.00;95933.16;6176614;23;20058;-60
2022/10/01 03:49:03;;;;;;;11.18;7.80;;;;;;;7.52;100.00;95935.31;6175001;23;20001;-60
2022/10/01 03:51:29;;;;;;;10.68;7.25;;;;;;;7.46;100.00;95941.00;6175829;23;20020;-61
2022/10/01 03:53:57;;;;;;;7.78;7.15;;;;;;;7.41;100.00;95930.88;6177247;23;20001;-61
2022/10/01 03:56:24;;;;;;;7.68;6.72;;;;;;;7.41;100.00;95923.03;6176131;23;20619;-60
2022/10/01 03:58:49;;;;;;;6.70;6.10;;;;;;;7.43;100.00;95921.13;6175391;23;20009;-61
2022/10/01 04:01:15;;;;;;;7.07;6.53;;;;;;;7.42;100.00;95921.22;6175659;23;19997;-60
2022/10/01 04:03:40;;;;;;;7.32;6.72;;;;;;;7.38;100.00;95920.59;6176487;23;20001;-62
2022/10/01 04:06:06;;;;;;;7.13;6.53;;;;;;;7.35;100.00;95920.84;6176696;23;20031;-71
2022/10/01 04:08:31;;;;;;;7.38;6.78;;;;;;;7.34;100.00;95926.22;6148745;23;20059;-70
2022/10/01 04:10:57;;;;;;;9.52;7.38;;;;;;;7.37;100.00;95929.41;6176082;23;20450;-70
2022/10/01 04:13:22;;;;;;;11.25;9.63;;;;;;;7.42;100.00;95922.06;6175997;23;19997;-71
2022/10/01 04:15:48;;;;;;;10.18;9.27;;;;;;;7.43;100.00;95926.34;6176284;23;20004;-71
2022/10/01 04:18:15;;;;;;;9.77;8.70;;;;;;;7.37;100.00;95925.97;6175361;23;20066;-72
2022/10/01 04:20:41;;;;;;;8.57;7.75;;;;;;;7.31;100.00;95932.50;6175476;23;20001;-72
2022/10/01 04:23:06;;;;;;;12.15;8.05;;;;;;;7.34;100.00;95936.69;6176471;23;20005;-64
2022/10/01 04:25:31;;;;;;;9.57;8.77;;;;;;;7.35;100.00;95947.03;6176189;23;20074;-64
2022/10/01 04:28:00;;;;;;;11.30;8.07;;;;;;;7.33;100.00;95955.97;6175786;23;20012;-64
2022/10/01 04:30:28;;;;;;;8.20;7.40;;;;;;;7.30;100.00;95957.03;6175435;23;20058;-64
2022/10/01 04:32:54;;;;;;;7.97;7.25;;;;;;;7.24;100.00;95957.50;6176499;23;20462;-64
2022/10/01 04:35:20;;;;;;;8.50;7.13;;;;;;;7.24;100.00;95970.59;6175918;23;19997;-64
2022/10/01 04:37:46;;;;;;;7.40;6.70;;;;;;;7.25;100.00;95980.94;6176084;23;20004;-64
2022/10/01 04:40:12;;;;;;;8.32;7.53;;;;;;;7.29;100.00;95986.78;6174892;23;20009;-63
2022/10/01 04:42:42;;;;;;;10.45;8.48;;;;;;;7.32;100.00;95989.19;6176294;23;20004;-63
2022/10/01 04:45:09;;;;;;;11.75;10.80;;;;;;;7.36;100.00;95990.63;6176512;23;20423;-72
2022/10/01 04:47:34;;;;;;;12.00;10.95;;;;;;;7.36;100.00;96000.28;6176437;23;20015;-72
2022/10/01 04:50:00;;;;;;;14.00;12.65;;;;;;;7.32;100.00;96002.28;6174790;23;20001;-72
2022/10/01 04:52:25;;;;;;;12.63;11.50;;;;;;;7.27;100.00;96015.72;6176020;23;20492;-72
2022/10/01 04:54:51;;;;;;;15.48;12.25;;;;;;;7.29;100.00;96015.59;6176165;23;20005;-72
2022/10/01 04:57:19;;;;;;;12.88;11.70;;;;;;;7.36;100.00;96016.00;6176025;23;20343;-72
2022/10/01 04:59:45;;;;;;;15.27;13.50;;;;;;;7.37;100.00;96017.66;6175334;23;20446;-62
2022/10/01 05:02:10;;;;;;;16.15;14.27;;;;;;;7.37;100.00;96020.28;6175721;23;20058;-58
2022/10/01 05:04:36;;;;;;;17.50;15.77;;;;;;;7.35;100.00;96023.00;6176636;23;20042;-68
2022/10/01 05:07:01;;;;;;;15.05;13.65;;;;;;;7.34;100.00;96034.44;6175965;23;20011;-68
2022/10/01 05:09:26;;;;;;;17.23;15.52;;;;;;;7.40;100.00;96030.53;6174939;23;20028;-68
2022/10/01 05:11:52;;;;;;;19.95;17.67;;;;;;;7.64;100.00;96027.88;6175688;23;19997;-68
2022/10/01 05:14:19;;;;;;;20.13;17.25;;;;;;;7.44;100.00;96035.44;6176193;23;20008;-68
2022/10/01 05:16:45;;;;;;;22.48;16.95;;;;;;;7.43;100.00;96044.25;6176178;23;20009;-68
2022/10/01 05:19:10;;;;;;;19.45;16.33;;;;;;;7.41;100.00;96046.16;6175044;23;20005;-64
2022/10/01 05:21:36;;;;;;;17.85;16.00;;;;;;;7.36;100.00;96035.16;6175972;23;20028;-72
2022/10/01 05:24:02;;;;;;;18.45;16.45;;;;;;;7.33;100.00;96045.84;6175170;23;20004;-63
2022/10/01 05:26:28;;;;;;;19.20;16.65;;;;;;;7.35;100.00;96049.19;6175868;23;20000;-63
2022/10/01 05:28:53;;;;;;;21.27;17.08;;;;;;;7.35;100.00;96049.19;6174150;23;20012;-64
2022/10/01 05:31:19;;;;;;;17.98;13.93;;;;;;;7.34;100.00;96052.75;6175701;23;20373;-63
2022/10/01 05:33:44;;;;;;;15.75;14.25;;;;;;;7.32;100.00;96052.03;6176279;23;20013;-63
2022/10/01 05:36:10;;;;;;;15.35;13.90;;;;;;;7.33;100.00;96060.75;6176190;23;20050;-63
2022/10/01 05:38:36;;;;;;;16.27;14.88;;;;;;;7.34;100.00;96060.63;6175484;23;20071;-71
2022/10/01 05:41:04;;;;;;;16.42;14.60;;;;;;;7.34;100.00;96052.75;6175627;23;20001;-61
2022/10/01 05:43:30;;;;;;;15.10;13.60;;;;;;;7.37;100.00;96059.56;6176001;23;20001;-63
2022/10/01 05:46:04;;;;;;;15.85;14.45;;;;;;;7.39;100.00;96068.97;6175674;23;20005;-64
2022/10/01 05:48:33;;;;;;;15.45;13.82;;;;;;;7.42;100.00;96068.78;6175027;23;20489;-63
2022/10/01 05:50:58;;;;;;;15.73;14.20;;;;;;;7.39;100.00;96070.78;6175112;23;20351;-64
2022/10/01 05:53:24;;;;;;;15.10;13.73;;;;;;;7.41;100.00;96069.72;6175500;23;19997;-63
2022/10/01 05:55:50;;;;;;;14.73;13.45;;;;;;;7.44;100.00;96071.25;6175620;23;20000;-64
2022/10/01 05:58:15;;;;;;;15.07;13.68;;;;;;;7.48;100.00;96074.50;6175622;23;20020;-67
2022/10/01 06:00:41;;;;;;;15.45;14.10;;;;;;;7.51;100.00;96080.31;6175077;23;19993;-72
2022/10/01 06:03:08;;;;;;;15.20;13.85;;;;;;;7.54;100.00;96082.75;6175927;23;20029;-70
2022/10/01 06:05:35;;;;;;;14.48;13.18;;;;;;;7.54;100.00;96092.38;6175466;23;20001;-70
2022/10/01 06:08:03;;;;;;;14.70;13.35;;;;;;;7.54;100.00;96087.13;6175784;23;20001;-71
2022/10/01 06:10:29;;;;;;;14.32;13.02;;;;;;;7.56;100.00;96098.34;6175423;23;20001;-70
2022/10/01 06:13:01;;;;;;;13.50;12.32;;;;;;;7.58;100.00;96101.69;6175745;23;20004;-70
2022/10/01 06:15:27;;;;;;;15.27;12.57;;;;;;;7.60;100.00;96107.63;6175857;23;20079;-70
2022/10/01 06:17:52;;;;;;;17.50;12.57;;;;;;;7.62;100.00;96112.78;6174902;23;20022;-57
2022/10/01 06:20:19;;;;;;;12.80;11.60;;;;;;;7.66;100.00;96111.59;6175018;23;20001;-62
2022/10/01 06:22:52;;;;;;;14.30;11.75;;;;;;;7.71;100.00;96109.47;6175444;23;20001;-65
2022/10/01 06:25:18;;;;;;;15.80;13.65;;;;;;;7.73;100.00;96110.19;6176450;23;20009;-63
2022/10/01 06:27:43;;;;;;;18.08;16.50;;;;;;;7.75;100.00;96110.94;6175209;23;20375;-63
2022/10/01 06:30:09;;;;;;;23.13;19.17;;;;;;;7.79;100.00;96119.38;6174276;23;20008;-63
2022/10/01 06:32:35;;;;;;;20.92;18.65;;;;;;;7.83;100.00;96111.19;6175083;23;20351;-63
2022/10/01 06:35:01;;;;;;;22.50;20.10;;;;;;;7.87;100.00;96101.31;6175972;23;20536;-63
2022/10/01 06:37:26;;;;;;;17.17;15.35;;;;;;;7.89;100.00;96099.41;6175094;23;20027;-61
2022/10/01 06:39:51;;;;;;;16.52;14.85;;;;;;;7.92;100.00;96093.09;6174773;23;20080;-62
2022/10/01 06:42:17;;;;;;;18.23;16.33;;;;;;;7.96;100.00;96087.50;6175328;23;20013;-63
2022/10/01 06:44:42;;;;;;;19.10;17.25;;;;;;;7.97;100.00;96073.44;6175558;23;20080;-63
2022/10/01 06:47:08;;;;;;;22.15;19.92;;;;;;;8.05;100.00;96077.25;6176702;23;20001;-63
2022/10/01 06:49:33;;;;;;;23.02;21.10;;;;;;;8.12;100.00;96075.84;6175418;23;20449;-63
2022/10/01 06:54:44;;;;;;;25.58;23.17;;;;;;;8.19;100.00;96058.69;6177159;23;20062;-62
2022/10/01 06:57:09;;;;;;;26.05;23.45;;;;;;;8.23;100.00;96049.63;6176595;23;20001;-64
2022/10/01 06:59:38;;;;;;;25.65;23.33;;;;;;;8.26;100.00;96033.66;6175907;23;20005;-68
2022/10/01 07:02:04;;;;;;;23.60;21.30;;;;;;;8.32;100.00;96032.34;6176382;23;20009;-69
2022/10/01 07:04:29;;;;;;;24.10;21.23;;;;;;;8.39;100.00;96038.75;6176594;23;20001;-69
2022/10/01 07:06:56;;;;;;;25.23;22.73;;;;;;;8.40;100.00;96037.84;6174517;23;20061;-70
2022/10/01 07:09:25;;;;;;;22.13;20.00;;;;;;;8.43;100.00;96034.13;6175159;23;20005;-70
2022/10/01 07:11:52;;;;;;;20.92;18.83;;;;;;;8.49;100.00;96038.06;6176211;23;20008;-69
2022/10/01 07:14:18;;;;;;;28.33;25.30;;;;;;;8.52;100.00;96043.09;6176108;23;20000;-70
2022/10/01 07:16:43;;;;;;;36.70;31.65;;;;;;;8.52;100.00;96043.94;6174926;23;20354;-57
2022/10/01 07:19:09;;;;;;;39.60;35.58;;;;;;;8.53;100.00;96066.59;6301089;22;20008;-68
2022/10/01 07:21:34;;;;;;;40.25;35.92;;;;;;;8.54;100.00;96063.03;6302167;22;20003;-69
2022/10/01 07:24:00;;;;;;;40.33;35.20;;;;;;;8.56;100.00;96076.88;6301486;22;20098;-66
2022/10/01 07:26:25;;;;;;;31.67;28.25;;;;;;;8.58;100.00;96090.69;6300000;22;20002;-67
2022/10/01 07:28:50;;;;;;;36.30;32.03;;;;;;;8.67;100.00;96097.03;6273653;22;20007;-67
2022/10/01 07:31:16;;;;;;;36.35;31.25;;;;;;;8.74;100.00;96113.13;6302409;22;20023;-67
2022/10/01 07:33:41;;;;;;;24.13;21.45;;;;;;;8.80;100.00;96132.78;6302110;22;20468;-67
2022/10/01 07:36:09;;;;;;;17.38;15.55;;;;;;;8.84;100.00;96142.94;6302319;22;20094;-60
2022/10/01 07:38:35;;;;;;;20.05;18.08;;;;;;;8.91;100.00;96155.59;6299927;22;19995;-55
2022/10/01 07:41:02;;;;;;;35.80;32.60;;;;;;;8.97;100.00;96153.31;6301237;22;20093;-54
2022/10/01 07:43:29;;;;;;;41.42;37.80;;;;;;;9.00;100.00;96173.25;6300852;22;19995;-55
2022/10/01 07:45:56;;;;;;;28.98;26.45;;;;;;;9.03;100.00;96181.72;6298685;22;20327;-55
2022/10/01 07:48:23;;;;;;;19.13;16.95;;;;;;;9.10;100.00;96189.97;6299656;22;20090;-54
2022/10/01 07:50:49;;;;;;;8.25;6.00;;;;;;;9.11;100.00;96188.19;6299408;22;20029;-55
2022/10/01 07:53:15;;;;;;;4.25;3.95;;;;;;;9.11;100.00;96190.81;6298955;22;20398;-54
2022/10/01 07:55:41;;;;;;;3.50;3.30;;;;;;;9.10;100.00;96182.06;6301712;22;20173;-74
2022/10/01 07:58:07;;;;;;;4.03;3.72;;;;;;;9.13;100.00;96183.63;6299727;22;20085;-79
2022/10/01 08:00:33;;;;;;;4.55;4.20;;;;;;;9.16;100.00;96168.44;6301971;22;20007;-75
2022/10/01 08:02:59;;;;;;;4.72;4.32;;;;;;;9.24;100.00;96167.84;6301711;22;20345;-75
2022/10/01 08:05:28;;;;;;;6.53;5.72;;;;;;;9.28;100.00;96174.56;6301909;22;20005;-77
2022/10/01 08:07:58;;;;;;;8.23;7.40;;;;;;;9.29;100.00;96178.84;6300436;22;20058;-74
2022/10/01 08:10:23;;;;;;;9.43;6.30;;;;;;;9.34;100.00;96169.75;6300318;22;19999;-75
2022/10/01 08:12:49;;;;;;;7.10;6.47;;;;;;;9.40;100.00;96175.38;6301634;22;20452;-77
2022/10/01 08:15:16;;;;;;;4.93;4.13;;;;;;;9.45;100.00;96178.47;6302295;22;19995;-67
2022/10/01 08:17:43;;;;;;;2.80;2.70;;;;;;;9.53;100.00;96182.25;6250644;22;20167;-64
2022/10/01 08:20:11;;;;;;;2.83;2.63;;;;;;;9.52;100.00;96184.06;6175140;22;20134;-62
2022/10/01 08:22:37;;;;;;;6.68;6.18;;;;;;;9.54;100.00;96181.28;6176440;23;19996;-63
2022/10/01 08:25:03;;;;;;;16.63;15.13;;;;;;;9.49;100.00;96180.84;6176506;23;20445;-63
2022/10/01 08:27:28;;;;;;;14.23;12.52;;;;;;;9.64;100.00;96174.34;6176360;23;20046;-64
2022/10/01 08:29:54;;;;;;;11.85;10.52;;;;;;;9.54;100.00;96179.50;6175921;23;20040;-64
2022/10/01 08:32:20;;;;;;;10.80;9.75;;;;;;;9.70;100.00;96187.00;6176482;23;20005;-63
2022/10/01 08:34:47;;;;;;;10.88;9.77;;;;;;;9.69;100.00;96190.56;6176287;23;20005;-63
2022/10/01 08:37:13;;;;;;;10.75;9.95;;;;;;;9.51;100.00;96192.06;6175449;23;20013;-61
2022/10/01 08:39:38;;;;;;;11.45;10.45;;;;;;;9.70;100.00;96181.72;6174132;23;20142;-62
2022/10/01 08:42:19;;;;;;;11.10;10.15;;;;;;;9.64;100.00;96192.75;6175827;23;20012;-63
2022/10/01 08:44:45;;;;;;;9.52;8.73;;;;;;;9.58;100.00;96194.06;6175084;23;20397;-60
2022/10/01 08:47:24;;;;;;;8.75;7.95;;;;;;;9.59;100.00;96189.63;6175995;23;19997;-63
2022/10/01 08:49:54;;;;;;;9.02;8.23;;;;;;;9.62;100.00;96194.66;6173875;23;20084;-62
2022/10/01 08:52:20;;;;;;;8.70;8.00;;;;;;;9.62;100.00;96192.03;6175041;23;20134;-62
2022/10/01 08:54:51;;;;;;;8.85;7.72;;;;;;;9.65;100.00;96181.28;6175847;23;20001;-62
2022/10/01 08:57:24;;;;;;;8.00;7.20;;;;;;;9.72;100.00;96177.19;6174698;23;20009;-73
2022/10/01 09:00:00;;;;;;;5.68;5.22;;;;;;;9.82;100.00;96179.03;6174157;23;20054;-72
2022/10/01 09:02:34;;;;;;;5.95;5.38;;;;;;;9.86;100.00;96185.75;6148482;22;20355;-73
2022/10/01 09:05:03;;;;;;;6.50;5.95;;;;;;;9.87;100.00;96185.59;6175866;23;20035;-74
2022/10/01 09:07:31;;;;;;;4.38;3.97;;;;;;;9.87;100.00;96192.69;6175749;23;20013;-71
2022/10/01 09:10:03;;;;;;;4.75;3.83;;;;;;;9.94;100.00;96200.88;6174094;23;19997;-72
2022/10/01 09:12:52;;;;;;;6.40;4.20;;;;;;;9.92;100.00;96195.75;6174922;23;20062;-63
2022/10/01 09:15:35;;;;;;;4.63;4.18;;;;;;;10.04;100.00;96205.25;6174654;23;20000;-63
2022/10/01 09:18:17;;;;;;;5.68;5.15;;;;;;;10.08;100.00;96205.03;6174684;23;20091;-63
2022/10/01 09:20:52;;;;;;;6.65;4.75;;;;;;;10.09;100.00;96211.97;6174664;23;20033;-62
2022/10/01 09:23:28;;;;;;;3.88;3.47;;;;;;;10.06;100.00;96218.31;6176073;23;20388;-62
2022/10/01 09:25:53;;;;;;;6.53;4.13;;;;;;;10.08;100.00;96221.63;6176013;23;20008;-63
2022/10/01 09:28:23;;;;;;;4.40;4.00;;;;;;;10.15;100.00;96224.59;6174987;23;20076;-65
2022/10/01 09:30:58;;;;;;;3.67;3.38;;;;;;;10.19;100.00;96228.66;6175445;23;20076;-71
2022/10/01 09:33:36;;;;;;;6.45;5.85;;;;;;;10.30;100.00;96233.88;6175390;23;20007;-63
2022/10/01 09:36:17;;;;;;;4.75;4.35;;;;;;;10.56;100.00;96243.22;6175056;23;20001;-62
2022/10/01 09:38:47;;;;;;;5.60;4.47;;;;;;;10.46;100.00;96241.34;6174054;23;19997;-61
2022/10/01 09:41:13;;;;;;;4.25;3.83;;;;;;;10.29;100.00;96249.78;6174860;23;20009;-62
2022/10/01 09:43:41;;;;;;;4.78;3.70;;;;;;;10.29;100.00;96250.63;6175961;23;20009;-62
2022/10/01 09:46:12;;;;;;;5.43;4.38;;;;;;;10.29;100.00;96245.38;6174410;22;19997;-62
2022/10/01 09:48:46;;;;;;;4.90;4.50;;;;;;;10.30;100.00;96239.13;6173848;22;20005;-61
2022/10/01 09:51:13;;;;;;;4.85;4.53;;;;;;;10.30;100.00;96240.91;6173636;23;20055;-63
2022/10/01 09:53:59;;;;;;;5.22;4.68;;;;;;;10.28;100.00;96237.59;6149698;22;20478;-63
2022/10/01 09:56:32;;;;;;;5.05;4.75;;;;;;;10.29;100.00;96244.50;6175660;23;20001;-62
2022/10/01 09:59:04;;;;;;;5.07;4.55;;;;;;;10.29;100.00;96255.03;6175130;23;20005;-62
2022/10/01 10:01:43;;;;;;;6.20;5.60;;;;;;;10.24;100.00;96247.53;6175550;23;20035;-62
2022/10/01 10:04:09;;;;;;;5.97;5.18;;;;;;;10.22;100.00;96243.38;6175642;23;20001;-62
2022/10/01 10:06:35;;;;;;;6.75;6.05;;;;;;;10.23;100.00;96245.84;6175666;23;19997;-63
2022/10/01 10:09:01;;;;;;;5.40;4.90;;;;;;;10.22;100.00;96254.72;6174476;23;20027;-69
2022/10/01 10:11:29;;;;;;;6.00;5.45;;;;;;;10.16;100.00;96256.03;6175827;23;20088;-66
2022/10/01 10:14:01;;;;;;;5.60;5.10;;;;;;;10.19;100.00;96257.59;6175401;23;20028;-61
2022/10/01 10:16:30;;;;;;;6.18;4.93;;;;;;;10.20;100.00;96258.44;6175081;23;20024;-62
2022/10/01 10:19:13;;;;;;;5.35;4.40;;;;;;;10.20;100.00;96268.97;6148444;23;20020;-61
2022/10/01 10:21:52;;;;;;;4.03;3.83;;;;;;;10.14;100.00;96272.94;6176851;23;20167;-62
2022/10/01 10:24:30;;;;;;;4.13;3.83;;;;;;;10.12;100.00;96277.47;6177150;23;20439;-63
2022/10/01 10:26:57;;;;;;;6.00;4.15;;;;;;;10.12;100.00;96280.13;6176624;23;20001;-62
2022/10/01 10:29:35;;;;;;;6.28;3.85;;;;;;;10.13;100.00;96285.22;6175987;23;20009;-64
2022/10/01 10:32:23;;;;;;;5.78;4.30;;;;;;;10.14;100.00;96296.59;6176720;23;20036;-64
2022/10/01 10:34:50;;;;;;;5.03;4.47;;;;;;;10.18;100.00;96298.03;6177164;23;20017;-64
2022/10/01 10:37:22;;;;;;;4.43;4.10;;;;;;;10.20;100.00;96306.63;6176546;23;20028;-64
2022/10/01 10:39:50;;;;;;;6.15;3.88;;;;;;;10.22;100.00;96312.59;6175719;23;20009;-64
2022/10/01 10:42:17;;;;;;;5.18;4.68;;;;;;;10.22;100.00;96311.78;6176672;23;19997;-64
2022/10/01 10:44:48;;;;;;;7.30;4.63;;;;;;;10.18;100.00;96312.03;6150618;23;20014;-64
2022/10/01 10:47:16;;;;;;;5.03;3.88;;;;;;;10.14;100.00;96320.28;6176824;22;20005;-67
2022/10/01 10:49:46;;;;;;;4.93;4.43;;;;;;;10.11;100.00;96320.53;6176094;23;20013;-64
2022/10/01 10:52:34;;;;;;;6.03;4.70;;;;;;;10.13;100.00;96316.81;6177427;23;20035;-59
2022/10/01 10:55:17;;;;;;;4.30;4.00;;;;;;;10.14;100.00;96320.28;6177153;22;20001;-59
2022/10/01 10:57:43;;;;;;;6.07;4.53;;;;;;;10.10;100.00;96305.72;6176550;23;20005;-59
2022/10/01 11:00:15;;;;;;;6.88;4.95;;;;;;;10.14;100.00;96302.69;6176522;23;20009;-59
2022/10/01 11:02:50;;;;;;;4.88;4.47;;;;;;;10.18;100.00;96295.41;6176828;23;20005;-59
2022/10/01 11:05:19;;;;;;;5.03;4.40;;;;;;;10.20;100.00;96298.72;6177081;23;20068;-58
2022/10/01 11:07:47;;;;;;;8.15;6.50;;;;;;;10.31;100.00;96297.84;6176065;23;20016;-68
2022/10/01 11:10:30;;;;;;;8.40;7.63;;;;;;;10.24;100.00;96307.22;6176251;23;20012;-59
2022/10/01 11:13:31;;;;;;;8.52;7.72;;;;;;;10.20;100.00;96309.25;6177348;23;20001;-58
2022/10/01 11:16:23;;;;;;;11.02;8.25;;;;;;;10.03;100.00;96319.34;6176831;23;20004;-58
2022/10/01 11:18:57;;;;;;;13.85;12.25;;;;;;;10.15;100.00;96322.78;6175134;22;20017;-59
2022/10/01 11:22:00;;;;;;;15.23;11.07;;;;;;;10.03;100.00;96314.06;6177158;23;20385;-59
2022/10/01 11:24:37;;;;;;;7.78;6.97;;;;;;;10.00;100.00;96316.97;6176363;23;19993;-59
2022/10/01 11:27:23;;;;;;;7.07;6.22;;;;;;;10.29;100.00;96319.06;6176553;23;20001;-64
2022/10/01 11:30:14;;;;;;;7.20;6.50;;;;;;;10.15;100.00;96319.31;6175938;22;20031;-64
2022/10/01 11:33:09;;;;;;;8.60;7.68;;;;;;;10.04;100.00;96325.44;6176380;23;20013;-64
2022/10/01 11:35:36;;;;;;;9.35;7.95;;;;;;;9.95;100.00;96315.69;6176503;23;20470;-63
2022/10/01 11:38:21;;;;;;;8.68;7.88;;;;;;;9.92;100.00;96319.38;6176305;23;19993;-64
2022/10/01 11:41:05;;;;;;;6.85;6.03;;;;;;;9.89;100.00;96311.75;6175815;23;20016;-63